Time;durP1;ratioP1;P1;durP2;ratioP2;P2;SDS_P1;SDS_P2;PMS_P1;PMS_P2;Temp;Humidity;BMP_temperature;BMP_pressure;BME280_temperature;BME280_humidity;BME280_pressure;Samples;Min_cycle;Max_cycle;Signal;HPM_P1;HPM_P2
2022/11/11 00:00:08;;;;;;;8.20;4.50;;;17.20;58.00;;;;;;5015831;28;20192;-69
2022/11/11 00:02:55;;;;;;;6.95;4.35;;;17.30;58.10;;;;;;5019524;28;20249;-69
2022/11/11 00:05:40;;;;;;;7.18;4.43;;;17.30;58.20;;;;;;4999829;28;20204;-70
2022/11/11 00:08:26;;;;;;;7.93;4.30;;;17.20;58.10;;;;;;4997736;28;20299;-70
2022/11/11 00:11:12;;;;;;;9.23;4.70;;;17.20;58.10;;;;;;4996639;28;20264;-69
2022/11/11 00:13:59;;;;;;;6.85;4.40;;;17.20;58.00;;;;;;4996075;28;20590;-69
2022/11/11 00:25:55;;;;;;;6.18;4.03;;;17.10;58.20;;;;;;4995859;28;20232;-69
2022/11/11 00:28:41;;;;;;;7.38;4.32;;;17.10;58.40;;;;;;4995898;28;20197;-69
2022/11/11 00:31:28;;;;;;;6.85;4.35;;;17.10;58.30;;;;;;4995407;28;20248;-69
2022/11/11 00:34:14;;;;;;;5.50;3.97;;;17.10;58.20;;;;;;4995796;28;20258;-69
2022/11/11 00:36:59;;;;;;;6.20;4.10;;;17.00;58.40;;;;;;4995532;28;20717;-69
2022/11/11 00:39:44;;;;;;;7.18;4.32;;;17.00;58.30;;;;;;4995382;28;20315;-69
2022/11/11 00:42:30;;;;;;;7.32;4.32;;;17.00;58.40;;;;;;4995844;28;20204;-69
2022/11/11 00:45:16;;;;;;;6.30;4.18;;;17.00;58.40;;;;;;4995549;28;20232;-69
2022/11/11 00:51:07;;;;;;;5.43;3.90;;;17.00;58.40;;;;;;4995439;28;20224;-69
2022/11/11 00:53:53;;;;;;;5.97;4.10;;;17.00;58.20;;;;;;4996151;28;20312;-69
2022/11/11 00:56:39;;;;;;;6.32;4.07;;;17.00;58.50;;;;;;4996724;28;20251;-69
2022/11/11 00:59:24;;;;;;;6.90;4.20;;;17.00;58.60;;;;;;5000036;28;20184;-69
2022/11/11 01:02:10;;;;;;;6.32;4.20;;;16.90;58.40;;;;;;5010867;28;20542;-69
2022/11/11 01:04:57;;;;;;;6.43;4.32;;;16.90;58.40;;;;;;4995833;28;20196;-69
2022/11/11 01:07:44;;;;;;;7.32;4.30;;;16.90;58.30;;;;;;4995209;28;20823;-69
2022/11/11 01:10:38;;;;;;;7.43;4.47;;;16.90;58.50;;;;;;4995364;28;20686;-69
2022/11/11 01:13:25;;;;;;;5.25;4.03;;;16.90;58.50;;;;;;4995209;28;20538;-69
2022/11/11 01:16:12;;;;;;;6.10;4.20;;;16.90;58.50;;;;;;4995252;28;20215;-70
2022/11/11 01:18:58;;;;;;;5.65;4.20;;;16.90;58.60;;;;;;4994596;28;20219;-70
2022/11/11 01:21:45;;;;;;;5.95;3.75;;;16.80;58.40;;;;;;4994819;28;20185;-70
2022/11/11 01:24:30;;;;;;;7.35;4.15;;;16.80;58.60;;;;;;4994678;28;20308;-70
2022/11/11 01:27:16;;;;;;;5.72;3.85;;;16.80;58.40;;;;;;4994377;28;20675;-70
2022/11/11 01:30:02;;;;;;;5.95;3.65;;;16.80;58.50;;;;;;4994741;28;20184;-70
2022/11/11 01:32:47;;;;;;;7.05;3.95;;;16.80;58.60;;;;;;4994378;28;20197;-70
2022/11/11 01:35:33;;;;;;;6.45;3.92;;;16.80;58.40;;;;;;4994516;28;20188;-70
2022/11/11 01:38:20;;;;;;;6.05;3.60;;;16.80;58.50;;;;;;4994382;28;20221;-69
2022/11/11 01:44:17;;;;;;;6.95;4.28;;;16.70;58.50;;;;;;4998466;28;20643;-69
2022/11/11 01:47:04;;;;;;;5.40;4.03;;;16.70;58.60;;;;;;4998665;28;20228;-69
2022/11/11 01:49:49;;;;;;;4.28;3.45;;;16.70;58.50;;;;;;4998030;28;20226;-69
2022/11/11 01:52:36;;;;;;;5.00;3.75;;;16.70;58.60;;;;;;4997827;28;20323;-69
2022/11/11 01:55:24;;;;;;;5.03;3.78;;;16.70;58.70;;;;;;4998163;28;20189;-69
2022/11/11 01:58:11;;;;;;;6.22;3.92;;;16.70;58.60;;;;;;4997933;28;20268;-69
2022/11/11 02:00:57;;;;;;;4.95;3.75;;;16.70;58.70;;;;;;4998379;28;20185;-69
2022/11/11 02:05:40;;;;;;;4.53;3.90;;;16.70;58.80;;;;;;4998423;28;20216;-69
2022/11/11 02:06:48;;;;;;;7.35;3.63;;;16.70;58.70;;;;;;4998074;28;20236;-70
2022/11/11 02:09:33;;;;;;;4.70;3.45;;;16.60;58.70;;;;;;4997886;28;20184;-70
2022/11/11 02:15:23;;;;;;;5.38;3.72;;;16.60;58.60;;;;;;4998489;28;20316;-70
2022/11/11 02:18:08;;;;;;;5.15;3.50;;;16.60;58.60;;;;;;4998124;28;20566;-70
2022/11/11 02:20:55;;;;;;;6.28;3.63;;;16.60;58.70;;;;;;4997518;28;20181;-70
2022/11/11 02:23:43;;;;;;;4.85;3.80;;;16.60;59.10;;;;;;4996910;28;20271;-69
2022/11/11 02:26:30;;;;;;;4.90;3.92;;;16.60;58.70;;;;;;4997408;28;20223;-69
2022/11/11 02:29:16;;;;;;;5.30;3.85;;;16.60;58.50;;;;;;4997735;28;20361;-70
2022/11/11 02:32:02;;;;;;;4.38;3.53;;;16.50;58.60;;;;;;4997531;28;20212;-69
2022/11/11 02:34:48;;;;;;;4.05;3.45;;;16.60;58.50;;;;;;4997669;28;20189;-69
2022/11/11 02:37:34;;;;;;;5.32;3.63;;;16.60;58.40;;;;;;4997608;28;20711;-69
2022/11/11 02:40:21;;;;;;;4.38;3.72;;;16.50;58.30;;;;;;4997602;28;20184;-69
2022/11/11 02:43:08;;;;;;;5.22;3.70;;;16.50;58.40;;;;;;4997340;28;20213;-69
2022/11/11 02:45:56;;;;;;;5.22;3.70;;;16.50;58.40;;;;;;4997457;28;20537;-69
2022/11/11 02:48:41;;;;;;;4.50;3.60;;;16.50;58.20;;;;;;4997008;28;20197;-69
2022/11/11 02:51:27;;;;;;;5.22;3.60;;;16.50;58.40;;;;;;4997108;28;20244;-69
2022/11/11 02:54:13;;;;;;;4.13;3.72;;;16.50;58.40;;;;;;4997335;28;20222;-69
2022/11/11 02:57:08;;;;;;;4.45;3.45;;;16.50;58.60;;;;;;4997260;28;20248;-69
2022/11/11 02:59:55;;;;;;;4.55;3.92;;;16.50;58.40;;;;;;4997233;28;20188;-69
2022/11/11 03:02:41;;;;;;;5.68;3.75;;;16.50;58.40;;;;;;4997156;28;20287;-69
2022/11/11 03:05:27;;;;;;;4.55;3.25;;;16.40;58.40;;;;;;4997488;28;20189;-69
2022/11/11 03:08:13;;;;;;;6.07;3.95;;;16.40;58.50;;;;;;4997117;28;20236;-70
2022/11/11 03:10:59;;;;;;;4.13;3.47;;;16.40;58.40;;;;;;4997402;28;20240;-70
2022/11/11 03:13:45;;;;;;;5.43;3.42;;;16.40;58.30;;;;;;4997150;28;20189;-69
2022/11/11 03:19:35;;;;;;;3.90;3.50;;;16.40;58.50;;;;;;4997211;28;20196;-69
2022/11/11 03:22:21;;;;;;;4.82;3.65;;;16.40;58.50;;;;;;4997066;28;20248;-69
2022/11/11 03:28:11;;;;;;;4.35;3.50;;;16.40;58.60;;;;;;4996487;28;20228;-69
2022/11/11 03:30:58;;;;;;;5.05;3.35;;;16.30;58.40;;;;;;4997052;28;20299;-69
2022/11/11 03:33:45;;;;;;;3.92;3.53;;;16.30;58.50;;;;;;4997297;28;20189;-69
2022/11/11 03:38:14;;;;;;;3.53;3.22;;;16.30;58.50;;;;;;4999683;28;20276;-69
2022/11/11 03:39:34;;;;;;;4.53;3.47;;;16.30;58.40;;;;;;4999810;28;20216;-69
2022/11/11 03:42:20;;;;;;;3.88;3.13;;;16.30;58.40;;;;;;5000051;28;20301;-70
2022/11/11 03:45:07;;;;;;;5.15;3.72;;;16.30;58.40;;;;;;5000876;28;20186;-69
2022/11/11 03:47:53;;;;;;;3.38;3.08;;;16.30;58.40;;;;;;4999635;28;20639;-71
2022/11/11 03:50:41;;;;;;;4.80;3.55;;;16.30;58.60;;;;;;4999475;28;20270;-69
2022/11/11 03:53:27;;;;;;;4.60;3.35;;;16.30;58.70;;;;;;4999902;28;20213;-69
2022/11/11 03:56:13;;;;;;;4.13;3.65;;;16.20;58.50;;;;;;4998379;28;20193;-69
2022/11/11 03:58:59;;;;;;;4.50;3.67;;;16.30;58.40;;;;;;4998392;28;20244;-69
2022/11/11 04:10:56;;;;;;;5.43;3.70;;;16.20;58.40;;;;;;4997201;28;20239;-69
2022/11/11 04:16:46;;;;;;;3.55;3.15;;;16.20;58.30;;;;;;4996703;28;20301;-69
2022/11/11 04:22:44;;;;;;;3.75;3.40;;;16.20;58.20;;;;;;4995970;28;20723;-69
2022/11/11 04:25:48;;;;;;;3.97;3.15;;;16.20;58.20;;;;;;4996192;28;20574;-69
2022/11/11 04:32:34;;;;;;;3.55;3.25;;;16.20;57.90;;;;;;4995264;28;20260;-69
2022/11/11 04:34:42;;;;;;;3.40;3.10;;;16.20;58.00;;;;;;4995379;28;20211;-69
2022/11/11 04:37:30;;;;;;;4.18;3.30;;;16.20;58.00;;;;;;4995623;28;20272;-70
2022/11/11 04:43:22;;;;;;;3.88;3.20;;;16.20;58.20;;;;;;4995855;28;20208;-70
2022/11/11 04:46:07;;;;;;;3.85;3.25;;;16.10;58.30;;;;;;4995475;28;20192;-70
2022/11/11 04:48:53;;;;;;;4.22;3.38;;;16.20;58.30;;;;;;4995761;28;20188;-70
2022/11/11 04:57:42;;;;;;;4.15;3.15;;;16.20;58.10;;;;;;4995442;28;20232;-70
2022/11/11 05:00:29;;;;;;;3.60;3.30;;;16.20;58.10;;;;;;4995553;28;20663;-70
2022/11/11 05:03:14;;;;;;;3.45;3.15;;;16.20;57.90;;;;;;4995319;28;20296;-70
2022/11/11 05:09:04;;;;;;;3.08;2.75;;;16.20;58.00;;;;;;4995827;28;20224;-70
2022/11/11 05:11:50;;;;;;;3.80;3.13;;;16.30;58.00;;;;;;4995641;28;20208;-70
2022/11/11 05:27:01;;;;;;;3.30;3.00;;;16.30;57.80;;;;;;5011951;28;20247;-70
2022/11/11 05:29:48;;;;;;;3.17;2.88;;;16.30;57.60;;;;;;4995508;28;20184;-70
2022/11/11 05:32:33;;;;;;;3.40;2.85;;;16.30;58.40;;;;;;4995210;28;20208;-69
2022/11/11 05:35:20;;;;;;;3.13;2.83;;;16.30;58.10;;;;;;4995094;28;20212;-69
2022/11/11 05:38:21;;;;;;;3.15;2.90;;;16.30;57.60;;;;;;4995270;28;20240;-69
2022/11/11 05:41:06;;;;;;;3.50;3.20;;;16.30;57.60;;;;;;4994896;28;20177;-69
2022/11/11 05:43:51;;;;;;;3.42;2.92;;;16.30;57.50;;;;;;4995479;28;20193;-69
2022/11/11 05:46:37;;;;;;;3.13;2.80;;;16.30;57.70;;;;;;4994974;28;20255;-69
2022/11/11 05:49:23;;;;;;;3.83;2.70;;;16.30;57.50;;;;;;4995030;28;20252;-69
2022/11/11 05:52:11;;;;;;;3.60;3.30;;;16.40;57.50;;;;;;4995339;28;20256;-70
2022/11/11 05:54:56;;;;;;;3.92;3.17;;;16.40;57.60;;;;;;4995277;28;20224;-69
2022/11/11 05:57:42;;;;;;;3.42;3.13;;;16.40;57.30;;;;;;4994666;28;20224;-69
2022/11/11 06:00:28;;;;;;;3.00;2.80;;;16.40;57.20;;;;;;4994972;28;20264;-69
2022/11/11 06:03:13;;;;;;;3.22;2.92;;;16.50;57.50;;;;;;4995004;28;20200;-69
2022/11/11 06:05:59;;;;;;;3.28;3.03;;;16.50;57.20;;;;;;4995290;28;20184;-69
2022/11/11 06:08:46;;;;;;;2.85;2.65;;;16.50;57.20;;;;;;4995146;28;20305;-69
2022/11/11 06:11:32;;;;;;;3.17;2.85;;;16.50;57.10;;;;;;4995483;28;20232;-69
2022/11/11 06:14:17;;;;;;;3.17;2.88;;;16.50;56.90;;;;;;4995046;28;20189;-69
2022/11/11 06:17:03;;;;;;;2.78;2.58;;;16.50;56.60;;;;;;4995968;28;20224;-69
2022/11/11 06:19:49;;;;;;;3.10;2.80;;;16.60;57.10;;;;;;4994886;28;20280;-69
2022/11/11 06:28:44;;;;;;;3.10;2.88;;;16.60;57.10;;;;;;4997550;28;20189;-69
2022/11/11 06:31:30;;;;;;;3.00;2.70;;;16.60;56.90;;;;;;4997617;28;20279;-69
2022/11/11 06:34:16;;;;;;;2.53;2.33;;;16.60;56.90;;;;;;4998208;28;20184;-69
2022/11/11 06:37:03;;;;;;;3.92;3.00;;;16.60;57.00;;;;;;4997553;28;20297;-69
2022/11/11 06:39:49;;;;;;;2.80;2.58;;;16.60;57.10;;;;;;4997243;28;20193;-69
2022/11/11 06:42:37;;;;;;;3.17;2.88;;;16.60;57.10;;;;;;4997536;28;20247;-68
2022/11/11 06:45:23;;;;;;;2.80;2.60;;;16.60;56.80;;;;;;4997680;28;20236;-68
2022/11/11 06:48:08;;;;;;;2.90;2.60;;;16.70;56.90;;;;;;4997054;28;20719;-68
2022/11/11 06:50:55;;;;;;;2.92;2.70;;;16.60;56.20;;;;;;4997069;28;20228;-68
2022/11/11 06:53:40;;;;;;;2.83;2.63;;;16.70;56.40;;;;;;4997123;28;20557;-68
2022/11/11 06:56:26;;;;;;;3.58;2.65;;;16.70;56.20;;;;;;4996952;28;20576;-68
2022/11/11 06:59:13;;;;;;;2.65;2.45;;;16.70;56.20;;;;;;4996934;28;20292;-68
2022/11/11 07:01:58;;;;;;;3.85;2.50;;;16.70;56.00;;;;;;4996867;28;20276;-68
2022/11/11 07:04:44;;;;;;;2.70;2.50;;;16.70;55.80;;;;;;4997308;28;20547;-68
2022/11/11 07:07:30;;;;;;;3.67;2.70;;;16.70;55.80;;;;;;4996647;28;20334;-68
2022/11/11 07:10:16;;;;;;;3.10;2.80;;;16.70;55.60;;;;;;4996579;28;20585;-68
2022/11/11 07:13:02;;;;;;;3.13;2.88;;;16.80;55.60;;;;;;4996312;28;20212;-68
2022/11/11 07:15:50;;;;;;;2.88;2.50;;;16.80;55.60;;;;;;4995574;28;20189;-68
2022/11/11 07:18:36;;;;;;;2.90;2.60;;;16.80;55.40;;;;;;4996854;28;20220;-68
2022/11/11 07:21:21;;;;;;;2.80;2.60;;;16.80;55.80;;;;;;4996232;28;20189;-68
2022/11/11 07:24:07;;;;;;;2.80;2.53;;;16.80;55.20;;;;;;4996641;28;20648;-68
2022/11/11 07:26:53;;;;;;;3.20;2.90;;;16.90;55.20;;;;;;4996258;28;20594;-68
2022/11/11 07:29:38;;;;;;;2.95;2.75;;;16.90;55.00;;;;;;4996068;28;20272;-68
2022/11/11 07:32:26;;;;;;;2.65;2.45;;;17.00;55.00;;;;;;4996186;28;20815;-68
2022/11/11 07:35:13;;;;;;;3.17;2.88;;;17.00;55.20;;;;;;4996144;28;20321;-68
2022/11/11 07:37:58;;;;;;;3.03;2.83;;;17.00;55.20;;;;;;4996221;28;20240;-69
2022/11/11 07:40:44;;;;;;;3.20;2.90;;;17.10;54.80;;;;;;4995657;28;20189;-69
2022/11/11 07:43:30;;;;;;;3.30;3.00;;;17.10;54.80;;;;;;4996214;28;20181;-69
2022/11/11 07:46:15;;;;;;;2.85;2.65;;;17.10;54.90;;;;;;4996287;28;20208;-69
2022/11/11 07:49:02;;;;;;;3.20;2.90;;;17.10;54.90;;;;;;4996345;28;20197;-69
2022/11/11 07:51:48;;;;;;;3.22;2.83;;;17.10;54.50;;;;;;4996044;28;20207;-69
2022/11/11 07:54:34;;;;;;;2.80;2.60;;;17.20;54.50;;;;;;4995684;28;20276;-69
2022/11/11 07:57:19;;;;;;;3.22;2.92;;;17.20;54.80;;;;;;4995419;28;20244;-69
2022/11/11 08:00:06;;;;;;;2.80;2.60;;;17.30;54.50;;;;;;5048941;23;20662;-64
2022/11/11 08:02:52;;;;;;;3.00;2.80;;;17.30;54.50;;;;;;5014856;28;20324;-64
2022/11/11 08:05:40;;;;;;;3.22;2.92;;;17.30;54.30;;;;;;5014925;28;20323;-64
2022/11/11 08:08:26;;;;;;;3.15;2.80;;;17.30;54.30;;;;;;5014938;28;20588;-64
2022/11/11 08:11:12;;;;;;;3.05;2.75;;;17.40;54.20;;;;;;5015035;28;20557;-64
2022/11/11 08:13:56;;;;;;;3.17;2.97;;;17.40;54.10;;;;;;5014560;28;20199;-64
2022/11/11 08:16:42;;;;;;;3.40;2.90;;;17.50;54.50;;;;;;5014685;28;20220;-64
2022/11/11 08:19:28;;;;;;;3.00;2.80;;;17.50;54.10;;;;;;5014659;28;20192;-64
2022/11/11 08:22:14;;;;;;;3.30;3.00;;;17.50;54.30;;;;;;5014457;28;20713;-65
2022/11/11 08:25:01;;;;;;;3.15;2.67;;;17.50;53.90;;;;;;5014517;28;20188;-64
2022/11/11 08:27:47;;;;;;;2.97;2.78;;;17.60;54.30;;;;;;5014453;28;20707;-65
2022/11/11 08:30:32;;;;;;;3.47;2.90;;;17.60;53.90;;;;;;5014745;28;20188;-64
2022/11/11 08:33:19;;;;;;;2.97;2.75;;;17.60;54.00;;;;;;5014265;28;20217;-65
2022/11/11 08:36:06;;;;;;;3.25;2.95;;;17.70;54.10;;;;;;5014465;28;20259;-64
2022/11/11 08:38:54;;;;;;;2.75;2.50;;;17.70;53.80;;;;;;5014594;28;20195;-65
2022/11/11 08:41:40;;;;;;;2.97;2.70;;;17.70;53.90;;;;;;5014483;28;20188;-64
2022/11/11 08:44:26;;;;;;;2.80;2.50;;;17.70;54.10;;;;;;5014203;28;20701;-65
2022/11/11 08:47:11;;;;;;;2.90;2.70;;;17.70;54.20;;;;;;5013982;28;20220;-64
2022/11/11 08:49:59;;;;;;;2.92;2.63;;;17.70;53.90;;;;;;5013885;28;20654;-65
2022/11/11 08:52:46;;;;;;;3.45;3.00;;;17.70;53.70;;;;;;5013933;28;20247;-64
2022/11/11 08:55:33;;;;;;;2.83;2.63;;;17.70;53.40;;;;;;5014001;28;20204;-64
2022/11/11 08:58:19;;;;;;;3.20;2.90;;;17.70;53.90;;;;;;5013907;28;20716;-64
2022/11/11 09:01:05;;;;;;;2.72;2.53;;;17.70;53.90;;;;;;5013818;28;20212;-64
2022/11/11 09:03:51;;;;;;;3.28;2.97;;;17.80;53.90;;;;;;5013906;28;20650;-64
2022/11/11 09:06:38;;;;;;;2.88;2.67;;;17.80;54.20;;;;;;5013864;28;20334;-64
2022/11/11 09:09:24;;;;;;;3.28;2.97;;;17.70;54.10;;;;;;5013594;28;20616;-65
2022/11/11 09:12:11;;;;;;;2.95;2.72;;;17.70;54.00;;;;;;5013845;28;20693;-64
2022/11/11 09:14:57;;;;;;;3.03;2.70;;;17.70;53.90;;;;;;5013597;28;20307;-64
2022/11/11 09:17:47;;;;;;;3.20;3.00;;;17.70;53.80;;;;;;5013510;28;20585;-65
2022/11/11 09:20:33;;;;;;;3.17;2.92;;;17.80;53.50;;;;;;5013482;28;20191;-64
2022/11/11 09:23:18;;;;;;;3.38;3.10;;;17.70;53.90;;;;;;5013954;28;20219;-65
2022/11/11 09:26:04;;;;;;;3.10;2.90;;;17.80;53.70;;;;;;5013842;28;20188;-66
2022/11/11 09:28:51;;;;;;;3.38;3.08;;;17.80;54.00;;;;;;5013728;28;20214;-65
2022/11/11 09:31:37;;;;;;;4.28;2.80;;;17.80;53.70;;;;;;5013508;28;20204;-65
2022/11/11 09:34:23;;;;;;;3.25;2.97;;;17.80;53.80;;;;;;5013459;28;20721;-65
2022/11/11 09:37:09;;;;;;;3.38;3.00;;;17.80;53.60;;;;;;5013589;28;20219;-65
2022/11/11 09:39:55;;;;;;;3.22;3.00;;;17.90;53.70;;;;;;5013527;28;20188;-65
2022/11/11 09:45:22;;;;;;;3.50;3.20;;;17.90;53.60;;;;;;5012748;28;20220;-62
2022/11/11 09:48:26;;;;;;;3.00;2.80;;;18.00;53.70;;;;;;5013463;28;20248;-62
2022/11/11 09:51:16;;;;;;;3.33;3.03;;;18.00;53.90;;;;;;5014017;28;20184;-61
2022/11/11 09:54:05;;;;;;;3.00;2.80;;;18.10;53.80;;;;;;5013525;28;20212;-62
2022/11/11 09:56:51;;;;;;;3.50;3.20;;;18.10;53.40;;;;;;5138090;23;20285;-71
2022/11/11 09:59:40;;;;;;;3.20;3.00;;;18.10;53.60;;;;;;5032892;28;20187;-70
2022/11/11 10:02:32;;;;;;;3.60;3.30;;;18.10;53.50;;;;;;5034608;28;20183;-70
2022/11/11 10:05:20;;;;;;;3.22;2.90;;;18.20;53.50;;;;;;5037905;28;20187;-70
2022/11/11 10:08:10;;;;;;;3.33;3.05;;;18.20;53.50;;;;;;5037773;28;20219;-71
2022/11/11 10:10:57;;;;;;;4.47;3.15;;;18.30;53.60;;;;;;5037418;28;20666;-71
2022/11/11 10:13:43;;;;;;;4.00;3.10;;;18.30;53.30;;;;;;5037623;28;20338;-70
2022/11/11 10:16:33;;;;;;;3.97;2.92;;;18.40;53.30;;;;;;5037515;28;20226;-70
2022/11/11 10:19:29;;;;;;;3.53;3.20;;;18.40;53.30;;;;;;5037581;28;20183;-70
2022/11/11 10:22:20;;;;;;;3.33;3.03;;;18.40;52.90;;;;;;5038108;28;20709;-70
2022/11/11 10:25:19;;;;;;;3.20;2.90;;;18.40;53.30;;;;;;5037523;28;20546;-70
2022/11/11 10:28:06;;;;;;;3.03;2.83;;;18.40;53.30;;;;;;5065982;23;20236;-68
2022/11/11 10:30:54;;;;;;;3.13;2.90;;;18.40;53.30;;;;;;5017477;28;20183;-68
2022/11/11 10:33:42;;;;;;;3.38;3.10;;;18.50;53.40;;;;;;5017922;28;20212;-68
2022/11/11 10:36:30;;;;;;;3.50;3.20;;;18.50;53.30;;;;;;5026297;28;20215;-68
2022/11/11 10:39:18;;;;;;;2.97;2.75;;;18.50;53.40;;;;;;5018111;28;20655;-66
2022/11/11 10:42:04;;;;;;;3.22;2.92;;;18.50;53.30;;;;;;5017771;28;20184;-66
2022/11/11 10:44:50;;;;;;;3.30;3.00;;;18.50;53.30;;;;;;5017668;28;20554;-66
2022/11/11 10:47:43;;;;;;;3.03;2.83;;;18.60;53.50;;;;;;5018508;28;20255;-66
2022/11/11 10:50:31;;;;;;;3.47;3.17;;;18.50;53.10;;;;;;5029018;28;20176;-66
2022/11/11 10:53:22;;;;;;;3.10;2.88;;;18.60;53.50;;;;;;5036691;28;20228;-66
2022/11/11 10:56:13;;;;;;;3.50;3.20;;;18.60;53.50;;;;;;5028654;28;20304;-66
2022/11/11 11:01:52;;;;;;;3.33;3.03;;;18.50;53.40;;;;;;4976773;28;20209;-61
2022/11/11 11:04:41;;;;;;;2.90;2.70;;;18.50;53.60;;;;;;5015149;23;21784;-69
2022/11/11 11:07:29;;;;;;;3.22;2.80;;;18.50;53.50;;;;;;4997802;28;20232;-69
2022/11/11 11:10:18;;;;;;;3.42;3.13;;;18.60;53.70;;;;;;4997134;28;20317;-69
2022/11/11 11:13:05;;;;;;;3.40;3.10;;;18.60;53.80;;;;;;4996931;28;20586;-69
2022/11/11 11:15:54;;;;;;;3.28;3.08;;;18.60;53.50;;;;;;4996987;28;20225;-69
2022/11/11 11:18:40;;;;;;;3.38;3.08;;;18.60;53.60;;;;;;4997066;28;20192;-69
2022/11/11 11:21:26;;;;;;;3.20;2.90;;;18.60;53.80;;;;;;4997054;28;20658;-69
2022/11/11 11:24:19;;;;;;;3.53;3.22;;;18.60;53.50;;;;;;4997173;28;20184;-69
2022/11/11 11:27:07;;;;;;;3.13;2.90;;;18.70;53.50;;;;;;4996651;28;20353;-69
2022/11/11 11:29:53;;;;;;;3.50;3.20;;;18.70;53.70;;;;;;4996559;28;20193;-69
2022/11/11 11:32:41;;;;;;;3.50;3.20;;;18.70;53.60;;;;;;5022066;23;20266;-70
2022/11/11 11:35:34;;;;;;;3.35;3.15;;;18.70;53.60;;;;;;5018801;28;20187;-70
2022/11/11 11:38:20;;;;;;;2.92;2.72;;;18.70;53.70;;;;;;5017630;28;20267;-70
2022/11/11 11:41:05;;;;;;;3.05;2.85;;;18.70;53.60;;;;;;5016605;28;20262;-70
2022/11/11 11:43:52;;;;;;;3.20;3.00;;;18.70;53.60;;;;;;4199827;23;20232;-66
2022/11/11 11:46:38;;;;;;;3.15;2.85;;;18.80;53.90;;;;;;5015337;28;20223;-66
2022/11/11 11:49:40;;;;;;;4.07;3.25;;;18.80;54.40;;;;;;5055706;23;20235;-70
2022/11/11 11:52:31;;;;;;;3.70;3.40;;;18.80;53.80;;;;;;5015857;28;20323;-70
2022/11/11 11:55:18;;;;;;;3.40;3.10;;;18.90;53.70;;;;;;5050329;23;20261;-70
2022/11/11 11:58:20;;;;;;;3.30;3.00;;;18.90;53.70;;;;;;5034764;28;20689;-68
2022/11/11 12:01:11;;;;;;;3.40;3.10;;;18.90;53.70;;;;;;5035714;28;20210;-69
2022/11/11 12:04:19;;;;;;;3.38;3.08;;;18.90;53.70;;;;;;5031748;23;20536;-70
2022/11/11 12:07:10;;;;;;;3.25;2.95;;;19.00;53.80;;;;;;5015690;28;20351;-70
2022/11/11 12:10:00;;;;;;;3.25;2.92;;;19.00;53.70;;;;;;5015171;28;20585;-71
2022/11/11 12:12:50;;;;;;;3.20;3.00;;;19.00;53.80;;;;;;5015518;28;20685;-71
2022/11/11 12:15:37;;;;;;;3.53;2.85;;;19.10;53.90;;;;;;5015040;28;20557;-70
2022/11/11 12:18:36;;;;;;;3.42;3.13;;;19.10;53.80;;;;;;5014974;28;20586;-71
2022/11/11 12:21:22;;;;;;;4.07;3.67;;;19.20;53.90;;;;;;5015383;28;20331;-70
2022/11/11 12:24:14;;;;;;;3.22;2.90;;;19.20;53.90;;;;;;5014314;28;20227;-67
2022/11/11 12:27:04;;;;;;;2.78;2.58;;;19.30;53.70;;;;;;5015022;28;20236;-67
2022/11/11 12:29:59;;;;;;;3.67;2.83;;;19.30;53.70;;;;;;5015235;28;20196;-67
2022/11/11 12:33:08;;;;;;;4.50;2.90;;;19.40;53.70;;;;;;5053531;23;21204;-67
2022/11/11 12:36:06;;;;;;;3.78;2.85;;;19.30;54.20;;;;;;5033976;28;20211;-67
2022/11/11 12:44:32;;;;;;;4.68;3.03;;;19.40;53.60;;;;;;4974718;28;20738;-67
2022/11/11 12:47:27;;;;;;;3.33;3.03;;;19.40;53.60;;;;;;4976203;28;20763;-67
2022/11/11 12:50:18;;;;;;;3.20;2.90;;;19.40;53.70;;;;;;4975709;28;20186;-65
2022/11/11 12:53:13;;;;;;;2.90;2.70;;;19.40;53.60;;;;;;4976083;28;20205;-65
2022/11/11 12:56:03;;;;;;;2.90;2.70;;;19.40;53.70;;;;;;4975872;28;20240;-65
2022/11/11 12:58:52;;;;;;;3.13;2.60;;;19.40;53.70;;;;;;4975787;28;20189;-65
2022/11/11 13:01:45;;;;;;;2.90;2.60;;;19.50;53.80;;;;;;4975701;28;20544;-65
2022/11/11 13:04:35;;;;;;;3.05;2.78;;;19.40;53.80;;;;;;4975774;28;20191;-65
2022/11/11 13:10:25;;;;;;;2.60;2.40;;;19.40;53.80;;;;;;5056290;23;20250;-57
2022/11/11 13:13:25;;;;;;;2.72;2.30;;;19.40;53.90;;;;;;5013775;28;20259;-56
2022/11/11 13:16:11;;;;;;;2.88;2.63;;;19.50;54.10;;;;;;5013367;28;20196;-56
2022/11/11 13:18:58;;;;;;;3.13;2.80;;;19.50;54.20;;;;;;5013533;28;20306;-57
2022/11/11 13:21:45;;;;;;;3.28;2.97;;;19.40;54.10;;;;;;5013305;28;20183;-57
2022/11/11 13:24:31;;;;;;;2.92;2.72;;;19.50;54.20;;;;;;5013252;28;20183;-57
2022/11/11 13:27:28;;;;;;;2.90;2.70;;;19.50;54.20;;;;;;5013628;28;20235;-57
2022/11/11 13:30:49;;;;;;;2.70;2.50;;;19.50;54.20;;;;;;5013338;28;20700;-57
2022/11/11 13:33:37;;;;;;;3.22;2.95;;;19.50;54.20;;;;;;5010345;28;20351;-57
2022/11/11 13:36:25;;;;;;;3.42;2.90;;;19.50;54.20;;;;;;5013536;28;20196;-58
2022/11/11 13:39:21;;;;;;;2.50;2.30;;;19.50;54.20;;;;;;5017391;28;20729;-58
2022/11/11 13:42:09;;;;;;;2.70;2.50;;;19.50;54.20;;;;;;5017476;28;20215;-58
2022/11/11 13:44:57;;;;;;;2.47;2.28;;;19.50;54.20;;;;;;5017623;28;20183;-58
2022/11/11 13:47:45;;;;;;;2.70;2.50;;;19.50;54.80;;;;;;5017267;28;20187;-58
2022/11/11 13:50:31;;;;;;;2.53;2.33;;;19.50;54.10;;;;;;5017446;28;20219;-58
2022/11/11 13:53:25;;;;;;;3.13;2.40;;;19.50;54.10;;;;;;5017456;28;20360;-57
2022/11/11 13:56:11;;;;;;;2.38;2.17;;;19.50;53.90;;;;;;5017422;28;20192;-57
2022/11/11 13:58:57;;;;;;;2.42;2.22;;;19.50;54.00;;;;;;5017653;28;20267;-57
2022/11/11 14:07:58;;;;;;;3.30;2.55;;;19.50;54.10;;;;;;5070836;23;20314;-64
2022/11/11 14:10:51;;;;;;;2.60;2.40;;;19.50;54.20;;;;;;4990091;28;20212;-63
2022/11/11 14:13:37;;;;;;;2.88;2.33;;;19.50;54.20;;;;;;5016877;28;20216;-64
2022/11/11 14:17:05;;;;;;;2.45;2.25;;;19.50;54.20;;;;;;5017069;28;20669;-63
2022/11/11 14:19:51;;;;;;;2.13;2.03;;;19.50;54.30;;;;;;5017035;28;20231;-63
2022/11/11 14:22:37;;;;;;;2.15;2.03;;;19.60;54.30;;;;;;5017625;28;20227;-64
2022/11/11 14:25:25;;;;;;;2.33;2.10;;;19.60;54.20;;;;;;5017353;28;20184;-63
2022/11/11 14:28:20;;;;;;;2.42;2.22;;;19.60;54.90;;;;;;5016680;28;20591;-63
2022/11/11 14:31:31;;;;;;;2.78;2.13;;;19.60;54.20;;;;;;5016616;28;20207;-63
2022/11/11 14:34:24;;;;;;;2.40;2.20;;;19.60;54.30;;;;;;5016425;28;20263;-64
2022/11/11 14:37:17;;;;;;;1.98;1.88;;;19.60;54.20;;;;;;5016709;28;20227;-64
2022/11/11 14:40:03;;;;;;;3.05;2.15;;;19.60;54.30;;;;;;5016609;28;20232;-63
2022/11/11 14:42:48;;;;;;;2.40;2.20;;;19.60;54.30;;;;;;5042808;23;20714;-67
2022/11/11 14:46:01;;;;;;;2.15;1.95;;;19.50;54.20;;;;;;5017100;28;20183;-67
2022/11/11 14:48:58;;;;;;;2.38;2.17;;;19.50;54.40;;;;;;5083073;23;20310;-70
2022/11/11 14:51:50;;;;;;;2.42;2.22;;;19.40;54.50;;;;;;5036736;28;20318;-70
2022/11/11 14:54:48;;;;;;;2.58;2.38;;;19.40;54.50;;;;;;5036625;28;20428;-70
2022/11/11 15:00:16;;;;;;;2.10;1.95;;;19.40;54.50;;;;;;5035122;28;20640;-69
2022/11/11 15:03:04;;;;;;;2.50;2.13;;;19.50;54.50;;;;;;5036772;28;20187;-68
2022/11/11 15:05:50;;;;;;;2.40;2.20;;;19.50;54.50;;;;;;5036572;28;20653;-68
2022/11/11 15:08:40;;;;;;;2.58;2.35;;;19.50;54.20;;;;;;5016519;28;20207;-68
2022/11/11 15:11:27;;;;;;;2.47;2.28;;;19.40;54.10;;;;;;5016603;28;20687;-68
2022/11/11 15:14:20;;;;;;;2.50;2.30;;;19.40;54.10;;;;;;5016367;28;20227;-68
2022/11/11 15:17:15;;;;;;;2.38;2.20;;;19.40;54.10;;;;;;5016475;28;20227;-68
2022/11/11 15:20:10;;;;;;;2.60;2.35;;;19.40;54.10;;;;;;5016438;28;20300;-68
2022/11/11 15:23:00;;;;;;;2.45;2.25;;;19.40;54.10;;;;;;5016401;28;20255;-68
2022/11/11 15:25:52;;;;;;;2.40;2.08;;;19.40;54.20;;;;;;5016630;28;20548;-68
2022/11/11 15:28:53;;;;;;;2.40;2.20;;;19.30;54.00;;;;;;5016277;28;20192;-68
2022/11/11 15:31:41;;;;;;;2.83;2.50;;;19.30;54.00;;;;;;5016405;28;20580;-68
2022/11/11 15:34:32;;;;;;;2.75;2.30;;;19.30;54.20;;;;;;5016937;28;20216;-68
2022/11/11 15:37:19;;;;;;;2.38;2.10;;;19.30;54.30;;;;;;5016898;28;20227;-69
2022/11/11 15:40:18;;;;;;;3.00;2.80;;;19.30;54.10;;;;;;1028185;23;20537;-64
2022/11/11 15:43:06;;;;;;;2.95;2.35;;;19.30;54.10;;;;;;5040627;23;20238;-69
2022/11/11 15:45:52;;;;;;;2.60;2.40;;;19.20;54.10;;;;;;5002362;28;20239;-69
2022/11/11 15:48:39;;;;;;;3.40;3.20;;;19.20;54.10;;;;;;4996873;28;20654;-70
2022/11/11 15:51:30;;;;;;;3.83;3.13;;;19.20;54.20;;;;;;4997085;28;20185;-70
2022/11/11 15:54:22;;;;;;;3.33;3.03;;;19.10;54.10;;;;;;4997306;28;20300;-70
2022/11/11 15:57:23;;;;;;;3.60;2.97;;;19.10;54.20;;;;;;4997708;28;20251;-70
2022/11/11 16:00:29;;;;;;;2.88;2.60;;;19.10;54.20;;;;;;4996667;28;20247;-70
2022/11/11 16:03:16;;;;;;;2.80;2.60;;;19.00;54.20;;;;;;4997313;28;20197;-70
2022/11/11 16:06:03;;;;;;;2.80;2.60;;;19.00;54.10;;;;;;4996996;28;20189;-70
2022/11/11 16:08:51;;;;;;;3.45;2.75;;;19.00;54.60;;;;;;5023429;23;20230;-67
2022/11/11 16:14:26;;;;;;;3.08;2.80;;;18.90;54.70;;;;;;5000878;23;20228;-68
2022/11/11 16:17:13;;;;;;;3.05;2.55;;;18.90;54.70;;;;;;5016403;28;20224;-68